Time,TemperatureF,DewpointF,PressureIn,WindDirection,WindDirectionDegrees,WindSpeedMPH,WindSpeedGustMPH,Humidity,HourlyPrecipIn,Conditions,Clouds,dailyrainin,SolarRadiationWatts/m^2,SoftwareType,DateUTC
2013-08-06 00:02:00,74.0,54.0,-100.00,West,272,4.0,7.0,50,0.00,,,0.00,0.000000,,2013-08-06 06:02:00,
2013-08-06 00:11:00,74.0,54.0,-100.00,West,272,4.0,7.0,50,0.00,,,0.00,0.000000,,2013-08-06 06:11:00,
2013-08-06 00:22:00,74.0,54.0,-100.00,West,272,4.0,7.0,50,0.00,,,0.00,0.000000,,2013-08-06 06:22:00,
2013-08-06 00:52:00,73.0,54.0,-100.00,WNW,285,6.0,14.0,51,0.00,,,0.00,0.000000,,2013-08-06 06:52:00,
2013-08-06 01:01:00,73.0,54.0,-100.00,WNW,285,6.0,14.0,51,0.00,,,0.00,0.000000,,2013-08-06 07:01:00,
2013-08-06 01:12:00,73.0,54.0,-100.00,WNW,285,6.0,14.0,51,0.00,,,0.00,0.000000,,2013-08-06 07:12:00,
2013-08-06 01:22:00,73.0,54.0,-100.00,WNW,285,6.0,14.0,51,0.00,,,0.00,0.000000,,2013-08-06 07:22:00,
2013-08-06 01:53:00,69.0,54.0,-100.00,NNE,30,1.0,9.0,59,0.00,,,0.00,0.000000,,2013-08-06 07:53:00,
2013-08-06 02:01:00,69.0,54.0,-100.00,NNE,30,1.0,9.0,59,0.00,,,0.00,0.000000,,2013-08-06 08:01:00,
2013-08-06 02:11:00,69.0,54.0,-100.00,NNE,30,1.0,9.0,59,0.00,,,0.00,0.000000,,2013-08-06 08:11:00,
2013-08-06 02:22:00,69.0,54.0,-100.00,NNE,30,1.0,9.0,59,0.00,,,0.00,0.000000,,2013-08-06 08:22:00,
2013-08-06 02:52:00,68.0,54.0,-100.00,East,99,1.0,7.0,61,0.00,,,0.00,0.000000,,2013-08-06 08:52:00,
2013-08-06 03:01:00,68.0,54.0,-100.00,East,99,1.0,7.0,61,0.00,,,0.00,0.000000,,2013-08-06 09:01:00,
2013-08-06 03:11:00,68.0,54.0,-100.00,East,99,1.0,7.0,61,0.00,,,0.00,0.000000,,2013-08-06 09:11:00,
2013-08-06 03:22:00,68.0,54.0,-100.00,East,99,1.0,7.0,61,0.00,,,0.00,0.000000,,2013-08-06 09:22:00,
2013-08-06 03:52:00,66.0,53.0,-100.00,ESE,117,2.0,15.0,62,0.00,,,0.00,0.000000,,2013-08-06 09:52:00,
2013-08-06 04:01:00,66.0,53.0,-100.00,ESE,117,2.0,15.0,62,0.00,,,0.00,0.000000,,2013-08-06 10:01:00,
2013-08-06 04:11:00,66.0,53.0,-100.00,ESE,117,2.0,15.0,62,0.00,,,0.00,0.000000,,2013-08-06 10:11:00,
2013-08-06 04:22:00,66.0,53.0,-100.00,ESE,117,2.0,15.0,62,0.00,,,0.00,0.000000,,2013-08-06 10:22:00,
2013-08-06 04:53:00,67.0,53.0,-100.00,SSE,156,4.0,6.0,60,0.00,,,0.00,0.000000,,2013-08-06 10:53:00,
2013-08-06 05:01:00,67.0,53.0,-100.00,SSE,156,4.0,6.0,60,0.00,,,0.00,0.000000,,2013-08-06 11:01:00,
2013-08-06 05:11:00,67.0,53.0,-100.00,SSE,156,4.0,6.0,60,0.00,,,0.00,0.000000,,2013-08-06 11:11:00,
2013-08-06 05:22:00,67.0,53.0,-100.00,SSE,156,4.0,6.0,60,0.00,,,0.00,0.000000,,2013-08-06 11:22:00,
2013-08-06 05:53:00,65.0,50.0,-100.00,East,94,2.0,9.0,59,0.00,,,0.00,0.000000,,2013-08-06 11:53:00,
2013-08-06 06:01:00,65.0,50.0,-100.00,East,94,2.0,9.0,59,0.00,,,0.00,0.000000,,2013-08-06 12:01:00,
2013-08-06 06:11:00,65.0,50.0,-100.00,East,94,2.0,9.0,59,0.00,,,0.00,0.000000,,2013-08-06 12:11:00,
2013-08-06 06:22:00,65.0,50.0,-100.00,East,94,2.0,9.0,59,0.00,,,0.00,0.000000,,2013-08-06 12:22:00,
2013-08-06 06:52:00,65.0,49.0,-100.00,East,100,4.0,6.0,57,0.00,,,0.00,0.000000,,2013-08-06 12:52:00,
2013-08-06 07:02:00,65.0,49.0,-100.00,East,100,4.0,6.0,57,0.00,,,0.00,0.000000,,2013-08-06 13:02:00,
2013-08-06 07:11:00,65.0,49.0,-100.00,East,100,4.0,6.0,57,0.00,,,0.00,0.000000,,2013-08-06 13:11:00,
2013-08-06 07:22:00,65.0,49.0,-100.00,East,100,4.0,6.0,57,0.00,,,0.00,0.000000,,2013-08-06 13:22:00,
2013-08-06 07:53:00,68.0,49.0,-100.00,SSW,200,2.0,9.0,51,0.00,,,0.00,40.000000,,2013-08-06 13:53:00,
2013-08-06 08:01:00,68.0,49.0,-100.00,SSW,200,2.0,9.0,51,0.00,,,0.00,40.000000,,2013-08-06 14:01:00,
2013-08-06 08:11:00,68.0,49.0,-100.00,SSW,200,2.0,9.0,51,0.00,,,0.00,40.000000,,2013-08-06 14:11:00,
2013-08-06 08:22:00,68.0,49.0,-100.00,SSW,200,2.0,9.0,51,0.00,,,0.00,40.000000,,2013-08-06 14:22:00,
2013-08-06 08:53:00,71.0,51.0,-100.00,WSW,240,0.0,6.0,49,0.00,,,0.00,224.000000,,2013-08-06 14:53:00,
2013-08-06 09:02:00,71.0,51.0,-100.00,WSW,240,0.0,6.0,49,0.00,,,0.00,224.000000,,2013-08-06 15:02:00,
2013-08-06 09:11:00,71.0,51.0,-100.00,WSW,240,0.0,6.0,49,0.00,,,0.00,224.000000,,2013-08-06 15:11:00,
2013-08-06 09:22:00,71.0,51.0,-100.00,WSW,240,0.0,6.0,49,0.00,,,0.00,224.000000,,2013-08-06 15:22:00,
2013-08-06 09:52:00,73.0,52.0,-100.00,SSW,199,2.0,11.0,48,0.00,,,0.00,336.000000,,2013-08-06 15:52:00,
2013-08-06 10:02:00,73.0,52.0,-100.00,SSW,199,2.0,11.0,48,0.00,,,0.00,336.000000,,2013-08-06 16:02:00,
2013-08-06 10:11:00,73.0,52.0,-100.00,SSW,199,2.0,11.0,48,0.00,,,0.00,336.000000,,2013-08-06 16:11:00,
2013-08-06 10:22:00,73.0,52.0,-100.00,SSW,199,2.0,11.0,48,0.00,,,0.00,336.000000,,2013-08-06 16:22:00,
2013-08-06 10:52:00,74.0,54.0,-100.00,WSW,239,3.0,8.0,49,0.00,,,0.00,353.000000,,2013-08-06 16:52:00,
2013-08-06 11:02:00,74.0,54.0,-100.00,WSW,239,3.0,8.0,49,0.00,,,0.00,353.000000,,2013-08-06 17:02:00,
2013-08-06 11:11:00,74.0,54.0,-100.00,WSW,239,3.0,8.0,49,0.00,,,0.00,353.000000,,2013-08-06 17:11:00,
2013-08-06 11:21:00,74.0,54.0,-100.00,WSW,239,3.0,8.0,49,0.00,,,0.00,353.000000,,2013-08-06 17:21:00,
2013-08-06 11:52:00,78.0,56.0,-100.00,WSW,240,7.0,10.0,46,0.00,,,0.00,568.000000,,2013-08-06 17:52:00,
2013-08-06 12:01:00,78.0,56.0,-100.00,WSW,240,7.0,10.0,46,0.00,,,0.00,568.000000,,2013-08-06 18:01:00,
2013-08-06 12:11:00,78.0,56.0,-100.00,WSW,240,7.0,10.0,46,0.00,,,0.00,568.000000,,2013-08-06 18:11:00,
2013-08-06 12:22:00,78.0,56.0,-100.00,WSW,240,7.0,10.0,46,0.00,,,0.00,568.000000,,2013-08-06 18:22:00,
2013-08-06 12:52:00,80.0,53.0,-100.00,WSW,240,7.0,14.0,39,0.00,,,0.00,1203.000000,,2013-08-06 18:52:00,
2013-08-06 13:01:00,80.0,53.0,-100.00,WSW,240,7.0,14.0,39,0.00,,,0.00,1203.000000,,2013-08-06 19:01:00,
2013-08-06 13:11:00,80.0,53.0,-100.00,WSW,240,7.0,14.0,39,0.00,,,0.00,1203.000000,,2013-08-06 19:11:00,
2013-08-06 13:21:00,80.0,53.0,-100.00,WSW,240,7.0,14.0,39,0.00,,,0.00,1203.000000,,2013-08-06 19:21:00,
2013-08-06 13:52:00,82.0,50.0,-100.00,SW,236,7.0,17.0,33,0.00,,,0.00,1075.000000,,2013-08-06 19:52:00,
2013-08-06 14:01:00,82.0,50.0,-100.00,SW,236,7.0,17.0,33,0.00,,,0.00,1075.000000,,2013-08-06 20:01:00,
2013-08-06 14:11:00,82.0,50.0,-100.00,SW,236,7.0,17.0,33,0.00,,,0.00,1075.000000,,2013-08-06 20:11:00,
2013-08-06 14:22:00,82.0,50.0,-100.00,SW,236,7.0,17.0,33,0.00,,,0.00,1075.000000,,2013-08-06 20:22:00,
2013-08-06 14:52:00,84.0,49.0,-100.00,WSW,247,10.0,18.0,30,0.00,,,0.00,1165.000000,,2013-08-06 20:52:00,
2013-08-06 15:01:00,84.0,49.0,-100.00,WSW,247,10.0,18.0,30,0.00,,,0.00,1165.000000,,2013-08-06 21:01:00,
2013-08-06 15:11:00,84.0,49.0,-100.00,WSW,247,10.0,18.0,30,0.00,,,0.00,1165.000000,,2013-08-06 21:11:00,
2013-08-06 15:22:00,84.0,49.0,-100.00,WSW,247,10.0,18.0,30,0.00,,,0.00,1165.000000,,2013-08-06 21:22:00,
2013-08-06 15:52:00,85.0,47.0,-100.00,SW,224,11.0,22.0,27,0.00,,,0.00,1082.000000,,2013-08-06 21:52:00,
2013-08-06 16:01:00,85.0,47.0,-100.00,SW,224,11.0,22.0,27,0.00,,,0.00,1082.000000,,2013-08-06 22:01:00,
2013-08-06 16:11:00,85.0,47.0,-100.00,SW,224,11.0,22.0,27,0.00,,,0.00,1082.000000,,2013-08-06 22:11:00,
2013-08-06 16:22:00,85.0,47.0,-100.00,SW,224,11.0,22.0,27,0.00,,,0.00,1082.000000,,2013-08-06 22:22:00,
2013-08-06 16:53:00,85.0,47.0,-100.00,SW,226,12.0,26.0,27,0.00,,,0.00,916.000000,,2013-08-06 22:53:00,
2013-08-06 17:01:00,85.0,47.0,-100.00,SW,226,12.0,26.0,27,0.00,,,0.00,916.000000,,2013-08-06 23:01:00,
2013-08-06 17:11:00,85.0,47.0,-100.00,SW,226,12.0,26.0,27,0.00,,,0.00,916.000000,,2013-08-06 23:11:00,
2013-08-06 17:22:00,85.0,47.0,-100.00,SW,226,12.0,26.0,27,0.00,,,0.00,916.000000,,2013-08-06 23:22:00,
2013-08-06 17:52:00,86.0,48.0,-100.00,WSW,247,12.0,28.0,27,0.00,,,0.00,716.000000,,2013-08-06 23:52:00,
2013-08-06 18:01:00,86.0,48.0,-100.00,WSW,247,12.0,28.0,27,0.00,,,0.00,716.000000,,2013-08-07 00:01:00,
2013-08-06 18:11:00,86.0,48.0,-100.00,WSW,247,12.0,28.0,27,0.00,,,0.00,716.000000,,2013-08-07 00:11:00,
2013-08-06 18:21:00,86.0,48.0,-100.00,WSW,247,12.0,28.0,27,0.00,,,0.00,716.000000,,2013-08-07 00:21:00,
2013-08-06 18:52:00,84.0,47.0,-100.00,SW,227,11.0,21.0,28,0.00,,,0.00,469.000000,,2013-08-07 00:52:00,
2013-08-06 19:01:00,84.0,47.0,-100.00,SW,227,11.0,21.0,28,0.00,,,0.00,469.000000,,2013-08-07 01:01:00,
2013-08-06 19:11:00,84.0,47.0,-100.00,SW,227,11.0,21.0,28,0.00,,,0.00,469.000000,,2013-08-07 01:11:00,
2013-08-06 19:22:00,84.0,47.0,-100.00,SW,227,11.0,21.0,28,0.00,,,0.00,469.000000,,2013-08-07 01:22:00,
2013-08-06 19:52:00,79.0,46.0,-100.00,SW,226,13.0,23.0,31,0.00,,,0.00,212.000000,,2013-08-07 01:52:00,
2013-08-06 20:02:00,79.0,46.0,-100.00,SW,226,13.0,23.0,31,0.00,,,0.00,212.000000,,2013-08-07 02:02:00,
2013-08-06 20:11:00,79.0,46.0,-100.00,SW,226,13.0,23.0,31,0.00,,,0.00,212.000000,,2013-08-07 02:11:00,
2013-08-06 20:22:00,79.0,46.0,-100.00,SW,226,13.0,23.0,31,0.00,,,0.00,212.000000,,2013-08-07 02:22:00,
2013-08-06 20:53:00,78.0,47.0,-100.00,SW,222,10.0,19.0,34,0.00,,,0.00,10.000000,,2013-08-07 02:53:00,
2013-08-06 21:01:00,78.0,47.0,-100.00,SW,222,10.0,19.0,34,0.00,,,0.00,10.000000,,2013-08-07 03:01:00,
2013-08-06 21:11:00,78.0,47.0,-100.00,SW,222,10.0,19.0,34,0.00,,,0.00,10.000000,,2013-08-07 03:11:00,
2013-08-06 21:22:00,78.0,47.0,-100.00,SW,222,10.0,19.0,34,0.00,,,0.00,10.000000,,2013-08-07 03:22:00,
2013-08-06 21:52:00,77.0,49.0,-100.00,South,182,4.0,18.0,37,0.00,,,0.00,0.000000,,2013-08-07 03:52:00,
2013-08-06 22:01:00,77.0,49.0,-100.00,South,182,4.0,18.0,37,0.00,,,0.00,0.000000,,2013-08-07 04:01:00,
2013-08-06 22:11:00,77.0,49.0,-100.00,South,182,4.0,18.0,37,0.00,,,0.00,0.000000,,2013-08-07 04:11:00,
2013-08-06 22:21:00,77.0,49.0,-100.00,South,182,4.0,18.0,37,0.00,,,0.00,0.000000,,2013-08-07 04:21:00,
2013-08-06 22:52:00,72.0,52.0,-100.00,WSW,243,4.0,19.0,50,0.00,,,0.00,0.000000,,2013-08-07 04:52:00,
2013-08-06 23:02:00,72.0,52.0,-100.00,WSW,243,4.0,19.0,50,0.00,,,0.00,0.000000,,2013-08-07 05:02:00,
2013-08-06 23:11:00,72.0,52.0,-100.00,WSW,243,4.0,19.0,50,0.00,,,0.00,0.000000,,2013-08-07 05:11:00,
2013-08-06 23:22:00,72.0,52.0,-100.00,WSW,243,4.0,19.0,50,0.00,,,0.00,0.000000,,2013-08-07 05:22:00,
2013-08-06 23:52:00,72.0,54.0,-100.00,SW,230,0.0,11.0,53,0.00,,,0.00,0.000000,,2013-08-07 05:52:00,